Time;durP1;ratioP1;P1;durP2;ratioP2;P2;SDS_P1;SDS_P2;PMS_P1;PMS_P2;Temp;Humidity;BMP_temperature;BMP_pressure;BME280_temperature;BME280_humidity;BME280_pressure;Samples;Min_cycle;Max_cycle;Signal;HPM_P1;HPM_P2
2022/06/20 00:00:09;;;;;;;12.70;6.80;;;;;;;;;;4838417;29;20081;-80
2022/06/20 00:02:41;;;;;;;11.68;6.78;;;;;;;;;;4825824;29;20053;-80
2022/06/20 00:05:12;;;;;;;10.45;6.97;;;;;;;;;;4864094;29;20121;-80
2022/06/20 00:07:40;;;;;;;10.07;6.47;;;;;;;;;;4825453;29;20490;-80
2022/06/20 00:10:08;;;;;;;12.75;6.68;;;;;;;;;;4856350;29;20054;-81
2022/06/20 00:12:35;;;;;;;10.45;6.18;;;;;;;;;;4857243;29;20100;-80
2022/06/20 00:15:03;;;;;;;11.57;7.03;;;;;;;;;;4858531;29;20072;-80
2022/06/20 00:17:31;;;;;;;14.23;6.82;;;;;;;;;;4891838;29;20053;-80
2022/06/20 00:20:01;;;;;;;12.90;6.97;;;;;;;;;;4870307;29;20054;-80
2022/06/20 00:22:29;;;;;;;14.43;6.93;;;;;;;;;;4827076;29;20060;-80
2022/06/20 00:24:56;;;;;;;13.68;7.22;;;;;;;;;;4840495;29;20041;-80
2022/06/20 00:27:25;;;;;;;10.32;6.75;;;;;;;;;;4838816;29;20072;-80
2022/06/20 00:29:53;;;;;;;13.18;6.95;;;;;;;;;;4840284;29;20046;-81
2022/06/20 00:32:20;;;;;;;13.18;6.90;;;;;;;;;;4865943;29;20262;-80
2022/06/20 00:34:48;;;;;;;11.93;6.82;;;;;;;;;;4840099;29;20053;-80
2022/06/20 00:37:17;;;;;;;12.88;6.63;;;;;;;;;;4839429;29;20053;-80
2022/06/20 00:39:46;;;;;;;10.57;6.22;;;;;;;;;;4865270;29;20574;-80
2022/06/20 00:42:13;;;;;;;13.32;6.57;;;;;;;;;;4869195;29;20635;-80
2022/06/20 00:45:02;;;;;;;11.68;7.15;;;;;;;;;;4855040;29;20194;-80
2022/06/20 00:47:49;;;;;;;11.27;6.95;;;;;;;;;;4867219;29;20064;-80
2022/06/20 00:50:35;;;;;;;11.23;6.60;;;;;;;;;;4838550;29;20419;-80
2022/06/20 00:53:32;;;;;;;15.90;7.30;;;;;;;;;;4853518;29;20497;-80
2022/06/20 00:56:28;;;;;;;11.02;7.18;;;;;;;;;;4842434;29;20407;-80
2022/06/20 00:59:17;;;;;;;15.90;7.05;;;;;;;;;;4860000;29;20052;-80
2022/06/20 01:02:06;;;;;;;12.98;7.22;;;;;;;;;;4853956;29;20136;-80
2022/06/20 01:05:04;;;;;;;14.90;6.82;;;;;;;;;;4857737;29;20106;-80
2022/06/20 01:07:56;;;;;;;10.63;6.95;;;;;;;;;;4834929;29;20148;-80
2022/06/20 01:10:51;;;;;;;11.23;7.03;;;;;;;;;;4843423;29;20060;-81
2022/06/20 01:13:36;;;;;;;12.77;6.97;;;;;;;;;;4868628;29;20056;-81
2022/06/20 01:16:29;;;;;;;10.32;6.32;;;;;;;;;;4857037;29;20141;-81
2022/06/20 01:19:23;;;;;;;10.40;6.60;;;;;;;;;;4856151;29;20124;-79
2022/06/20 01:22:29;;;;;;;13.77;6.60;;;;;;;;;;4878953;29;20052;-79
2022/06/20 01:25:26;;;;;;;10.90;7.00;;;;;;;;;;4888938;29;20059;-79
2022/06/20 01:28:13;;;;;;;12.35;7.35;;;;;;;;;;4879727;29;20040;-80
2022/06/20 01:30:59;;;;;;;13.07;7.22;;;;;;;;;;4876505;29;20052;-80
2022/06/20 01:33:45;;;;;;;12.85;7.10;;;;;;;;;;4869618;29;20100;-80
2022/06/20 01:39:39;;;;;;;11.63;7.20;;;;;;;;;;4858655;29;20515;-80
2022/06/20 01:42:27;;;;;;;10.27;7.03;;;;;;;;;;4858018;29;20044;-80
2022/06/20 01:48:22;;;;;;;17.25;7.43;;;;;;;;;;4869318;29;20430;-80
2022/06/20 01:51:20;;;;;;;11.23;6.60;;;;;;;;;;4861089;29;20069;-81
2022/06/20 01:54:06;;;;;;;11.95;7.47;;;;;;;;;;4822866;29;20566;-81
2022/06/20 01:56:53;;;;;;;13.00;7.43;;;;;;;;;;4844324;29;20109;-81
2022/06/20 01:59:45;;;;;;;15.75;7.60;;;;;;;;;;4854349;29;20060;-81
2022/06/20 02:02:34;;;;;;;12.13;7.05;;;;;;;;;;4841388;29;20134;-81
2022/06/20 02:05:22;;;;;;;13.52;7.20;;;;;;;;;;4834107;29;20060;-80
2022/06/20 02:08:08;;;;;;;12.52;7.03;;;;;;;;;;4827090;29;20056;-81
2022/06/20 02:10:57;;;;;;;10.30;7.28;;;;;;;;;;4836288;29;20060;-81
2022/06/20 02:13:44;;;;;;;16.27;7.28;;;;;;;;;;4822633;29;20061;-81
2022/06/20 02:16:33;;;;;;;10.65;7.05;;;;;;;;;;4836250;29;20106;-81
2022/06/20 02:19:24;;;;;;;14.82;6.90;;;;;;;;;;4839574;29;20092;-80
2022/06/20 02:22:10;;;;;;;12.77;7.13;;;;;;;;;;4855496;29;20052;-80
2022/06/20 02:25:00;;;;;;;12.02;7.45;;;;;;;;;;4838625;29;20162;-81
2022/06/20 02:27:54;;;;;;;14.13;7.43;;;;;;;;;;4837826;29;20052;-81
2022/06/20 02:30:40;;;;;;;11.32;7.35;;;;;;;;;;4845000;29;20057;-81
2022/06/20 02:33:29;;;;;;;15.88;7.50;;;;;;;;;;4841531;29;20060;-81
2022/06/20 02:36:15;;;;;;;13.45;6.82;;;;;;;;;;4837830;29;20072;-81
2022/06/20 02:39:01;;;;;;;14.40;7.43;;;;;;;;;;4860902;29;20444;-81
2022/06/20 02:41:49;;;;;;;11.55;7.40;;;;;;;;;;4850699;29;20056;-81
2022/06/20 02:44:35;;;;;;;9.63;7.13;;;;;;;;;;4840520;29;20141;-81
2022/06/20 02:47:23;;;;;;;12.15;7.10;;;;;;;;;;4849040;29;20433;-81
2022/06/20 02:50:12;;;;;;;13.63;7.50;;;;;;;;;;4859733;29;20577;-81
2022/06/20 02:53:05;;;;;;;14.57;7.75;;;;;;;;;;4863398;29;20060;-81
2022/06/20 02:55:52;;;;;;;13.23;7.90;;;;;;;;;;4840385;29;20084;-81
2022/06/20 02:58:40;;;;;;;12.52;7.18;;;;;;;;;;4854494;29;20060;-81
2022/06/20 03:01:26;;;;;;;11.32;7.40;;;;;;;;;;4853749;29;20071;-81
2022/06/20 03:04:12;;;;;;;9.48;6.85;;;;;;;;;;4854656;29;20068;-81
2022/06/20 03:07:01;;;;;;;14.77;7.63;;;;;;;;;;4854980;29;20421;-80
2022/06/20 03:09:50;;;;;;;11.25;7.15;;;;;;;;;;4863433;29;20055;-81
2022/06/20 03:12:36;;;;;;;10.48;6.80;;;;;;;;;;4858672;29;20710;-81
2022/06/20 03:15:22;;;;;;;12.15;6.70;;;;;;;;;;4872542;29;20206;-81
2022/06/20 03:18:08;;;;;;;9.93;7.03;;;;;;;;;;4843667;29;20372;-80
2022/06/20 03:20:56;;;;;;;12.88;6.70;;;;;;;;;;4839859;29;20060;-81
2022/06/20 03:23:41;;;;;;;12.25;7.70;;;;;;;;;;4853934;29;20545;-81
2022/06/20 03:26:28;;;;;;;12.13;7.13;;;;;;;;;;4838817;29;20093;-81
2022/06/20 03:29:15;;;;;;;9.82;6.90;;;;;;;;;;4847790;29;20657;-81
2022/06/20 03:32:02;;;;;;;13.20;7.38;;;;;;;;;;4841344;29;20570;-81
2022/06/20 03:34:47;;;;;;;15.70;7.38;;;;;;;;;;4852582;29;20454;-79
2022/06/20 03:37:33;;;;;;;12.30;7.13;;;;;;;;;;4847642;29;20628;-80
2022/06/20 03:40:19;;;;;;;15.18;7.50;;;;;;;;;;4857468;29;20234;-80
2022/06/20 03:43:07;;;;;;;11.43;7.95;;;;;;;;;;4841941;29;20052;-81
2022/06/20 03:45:58;;;;;;;12.25;7.20;;;;;;;;;;4852208;29;20082;-79
2022/06/20 03:48:44;;;;;;;;;;;;;;;;;;4856694;29;20664;-80
2022/06/20 03:51:34;;;;;;;9.63;7.68;;;;;;;;;;4842683;29;20457;-80
2022/06/20 03:54:20;;;;;;;16.92;7.30;;;;;;;;;;4843504;29;20052;-81
2022/06/20 03:57:09;;;;;;;12.57;7.22;;;;;;;;;;4856442;29;20053;-81
2022/06/20 04:00:01;;;;;;;12.70;7.07;;;;;;;;;;4869302;29;20056;-81
2022/06/20 04:03:02;;;;;;;12.85;7.00;;;;;;;;;;4826201;29;20049;-80
2022/06/20 04:06:09;;;;;;;9.80;6.70;;;;;;;;;;4824215;29;20169;-80
2022/06/20 04:12:24;;;;;;;10.73;7.00;;;;;;;;;;4842885;29;20093;-80
2022/06/20 04:15:13;;;;;;;11.68;6.90;;;;;;;;;;4854397;29;20041;-80
2022/06/20 04:21:13;;;;;;;17.00;7.93;;;;;;;;;;4874883;29;20072;-80
2022/06/20 04:24:02;;;;;;;13.02;7.22;;;;;;;;;;4853359;29;20141;-81
2022/06/20 04:26:55;;;;;;;12.68;7.07;;;;;;;;;;4844017;29;20056;-80
2022/06/20 04:29:43;;;;;;;15.35;7.45;;;;;;;;;;4833671;29;20363;-81
2022/06/20 04:32:42;;;;;;;17.23;8.52;;;;;;;;;;4864557;29;20870;-81
2022/06/20 04:35:32;;;;;;;21.17;7.68;;;;;;;;;;4836154;29;20183;-81
2022/06/20 04:38:24;;;;;;;11.05;8.13;;;;;;;;;;4850277;29;20136;-80
2022/06/20 04:41:13;;;;;;;13.13;7.80;;;;;;;;;;4870310;29;20052;-80
2022/06/20 04:44:02;;;;;;;12.05;7.75;;;;;;;;;;4852289;29;20201;-81
2022/06/20 04:46:51;;;;;;;13.30;7.72;;;;;;;;;;4882743;29;20164;-79
2022/06/20 04:49:37;;;;;;;11.65;7.47;;;;;;;;;;4867703;29;20066;-79
2022/06/20 04:52:26;;;;;;;11.60;7.78;;;;;;;;;;4855135;29;20144;-80
2022/06/20 04:55:16;;;;;;;12.35;8.25;;;;;;;;;;4846249;29;20062;-84
2022/06/20 04:58:26;;;;;;;10.80;8.52;;;;;;;;;;4834731;29;20068;-81
2022/06/20 05:01:41;;;;;;;16.70;8.90;;;;;;;;;;4828252;29;20047;-81
2022/06/20 05:04:52;;;;;;;13.55;8.88;;;;;;;;;;4839550;29;20044;-78
2022/06/20 05:07:39;;;;;;;13.00;7.90;;;;;;;;;;4853626;24;21065;-75
2022/06/20 05:10:29;;;;;;;13.95;7.45;;;;;;;;;;4851433;29;20626;-76
2022/06/20 05:13:18;;;;;;;12.15;7.35;;;;;;;;;;4855290;29;20049;-76
2022/06/20 05:16:06;;;;;;;13.23;7.47;;;;;;;;;;4853974;29;20159;-76
2022/06/20 05:18:55;;;;;;;13.45;7.45;;;;;;;;;;4852573;29;20422;-75
2022/06/20 05:21:44;;;;;;;16.77;7.75;;;;;;;;;;4838079;29;20121;-75
2022/06/20 05:24:35;;;;;;;15.88;8.40;;;;;;;;;;4834221;29;20064;-75
2022/06/20 05:27:24;;;;;;;11.45;7.65;;;;;;;;;;4844214;29;20061;-76
2022/06/20 05:30:16;;;;;;;13.57;7.18;;;;;;;;;;4836387;29;20102;-76
2022/06/20 05:33:06;;;;;;;12.20;7.40;;;;;;;;;;4847968;29;20060;-76
2022/06/20 05:35:58;;;;;;;13.35;6.95;;;;;;;;;;4844024;29;20691;-77
2022/06/20 05:38:26;;;;;;;11.70;8.13;;;;;;;;;;4852911;29;20037;-77
2022/06/20 05:40:58;;;;;;;14.38;7.95;;;;;;;;;;4854557;29;20045;-77
2022/06/20 05:43:29;;;;;;;13.75;8.38;;;;;;;;;;4851906;29;20049;-77
2022/06/20 05:46:00;;;;;;;12.90;7.22;;;;;;;;;;4849916;29;20107;-76
2022/06/20 05:48:31;;;;;;;15.05;7.47;;;;;;;;;;4845719;29;20046;-77
2022/06/20 05:51:02;;;;;;;17.40;9.70;;;;;;;;;;4852906;29;20055;-77
2022/06/20 05:53:30;;;;;;;;;;;;;;;;;;4854757;29;20303;-76
2022/06/20 05:55:58;;;;;;;11.23;7.10;;;;;;;;;;4853995;29;19927;-77
2022/06/20 05:58:35;;;;;;;16.58;8.07;;;;;;;;;;4851665;29;20368;-74
2022/06/20 06:01:07;;;;;;;14.13;7.35;;;;;;;;;;4855530;29;20418;-76
2022/06/20 06:03:38;;;;;;;15.40;7.78;;;;;;;;;;4861600;29;20128;-76
2022/06/20 06:06:17;;;;;;;13.75;7.32;;;;;;;;;;4855882;29;20073;-76
2022/06/20 06:08:47;;;;;;;15.35;7.80;;;;;;;;;;4858663;29;20145;-76
2022/06/20 06:11:20;;;;;;;13.02;7.70;;;;;;;;;;4850586;29;20105;-76
2022/06/20 06:13:51;;;;;;;11.05;7.03;;;;;;;;;;4842273;29;20094;-76
2022/06/20 06:19:21;;;;;;;14.20;7.95;;;;;;;;;;4863925;29;20050;-76
2022/06/20 06:21:50;;;;;;;16.35;7.72;;;;;;;;;;4852364;29;20129;-76
2022/06/20 06:24:19;;;;;;;16.00;7.82;;;;;;;;;;4851548;29;20410;-76
2022/06/20 06:26:48;;;;;;;17.65;8.13;;;;;;;;;;4848659;29;20048;-76
2022/06/20 06:29:21;;;;;;;15.65;8.20;;;;;;;;;;4849434;29;20136;-76
2022/06/20 06:31:49;;;;;;;14.10;8.10;;;;;;;;;;4861903;29;20574;-76
2022/06/20 06:34:23;;;;;;;18.13;8.27;;;;;;;;;;4838218;29;20042;-76
2022/06/20 06:36:57;;;;;;;15.55;7.85;;;;;;;;;;4840135;29;20073;-76
2022/06/20 06:39:34;;;;;;;13.27;8.20;;;;;;;;;;4856584;29;20209;-76
2022/06/20 06:42:03;;;;;;;18.65;9.48;;;;;;;;;;4862562;29;20519;-76
2022/06/20 06:44:33;;;;;;;14.23;9.73;;;;;;;;;;4853572;29;20406;-76
2022/06/20 06:47:02;;;;;;;15.48;9.80;;;;;;;;;;4837221;29;20041;-77
2022/06/20 06:49:29;;;;;;;17.92;8.90;;;;;;;;;;4849066;29;20049;-75
2022/06/20 06:52:07;;;;;;;15.05;7.40;;;;;;;;;;4862555;29;20133;-77
2022/06/20 06:54:48;;;;;;;15.48;7.75;;;;;;;;;;4856091;29;20052;-77
2022/06/20 06:57:22;;;;;;;14.85;7.43;;;;;;;;;;4836663;29;20113;-75
2022/06/20 06:59:53;;;;;;;16.10;7.00;;;;;;;;;;4861735;29;20073;-76
2022/06/20 07:02:22;;;;;;;16.70;7.43;;;;;;;;;;4857749;29;20152;-76
2022/06/20 07:04:59;;;;;;;11.02;6.55;;;;;;;;;;4849510;29;20041;-76
2022/06/20 07:07:29;;;;;;;17.55;7.65;;;;;;;;;;4853951;29;20045;-77
2022/06/20 07:09:57;;;;;;;18.38;7.57;;;;;;;;;;4849283;29;20080;-77
2022/06/20 07:12:24;;;;;;;17.25;7.43;;;;;;;;;;4849223;29;20042;-76
2022/06/20 07:15:00;;;;;;;22.08;7.95;;;;;;;;;;4857370;29;20049;-76
2022/06/20 07:17:34;;;;;;;16.10;7.07;;;;;;;;;;4834085;29;20038;-77
2022/06/20 07:20:02;;;;;;;16.88;8.05;;;;;;;;;;4850477;29;20053;-77
2022/06/20 07:22:34;;;;;;;19.08;8.10;;;;;;;;;;4843595;29;20077;-77
2022/06/20 07:25:03;;;;;;;17.73;7.63;;;;;;;;;;4853376;29;20059;-76
2022/06/20 07:27:38;;;;;;;15.90;7.50;;;;;;;;;;4867438;29;20045;-76
2022/06/20 07:30:18;;;;;;;23.98;8.02;;;;;;;;;;4838826;29;20080;-77
2022/06/20 07:32:49;;;;;;;21.10;8.23;;;;;;;;;;4856749;29;20097;-77
2022/06/20 07:35:26;;;;;;;19.58;9.15;;;;;;;;;;4843166;29;20053;-77
2022/06/20 07:38:09;;;;;;;19.00;7.50;;;;;;;;;;4851427;29;20132;-77
2022/06/20 07:40:52;;;;;;;13.23;7.22;;;;;;;;;;4853558;29;20053;-77
2022/06/20 07:43:29;;;;;;;8.98;5.20;;;;;;;;;;4852327;29;20060;-76
2022/06/20 07:46:08;;;;;;;31.88;7.30;;;;;;;;;;4834743;29;20046;-77
2022/06/20 07:48:42;;;;;;;46.17;12.63;;;;;;;;;;4854932;29;20041;-79
2022/06/20 07:51:12;;;;;;;32.63;13.30;;;;;;;;;;4860091;29;20497;-79
2022/06/20 07:53:50;;;;;;;30.30;13.98;;;;;;;;;;4856875;29;20061;-79
2022/06/20 07:56:37;;;;;;;27.90;13.02;;;;;;;;;;4859330;29;20085;-79
2022/06/20 07:59:31;;;;;;;22.05;11.02;;;;;;;;;;4843909;29;20132;-78
2022/06/20 08:02:04;;;;;;;21.38;12.10;;;;;;;;;;4850825;29;20193;-77
2022/06/20 08:04:34;;;;;;;27.80;12.05;;;;;;;;;;4851461;29;20050;-77
2022/06/20 08:07:04;;;;;;;24.08;14.80;;;;;;;;;;4853157;29;20045;-78
2022/06/20 08:09:44;;;;;;;22.80;12.23;;;;;;;;;;4858308;29;20045;-79
2022/06/20 08:12:42;;;;;;;15.07;9.23;;;;;;;;;;4858734;29;20125;-79
2022/06/20 08:15:17;;;;;;;12.75;9.20;;;;;;;;;;4855616;29;20046;-77
2022/06/20 08:17:44;;;;;;;11.57;8.20;;;;;;;;;;4838159;29;20124;-78
2022/06/20 08:20:12;;;;;;;15.45;9.18;;;;;;;;;;4854515;29;20055;-78
2022/06/20 08:22:47;;;;;;;18.02;10.13;;;;;;;;;;4839117;29;20096;-78
2022/06/20 08:25:25;;;;;;;18.38;13.30;;;;;;;;;;4857217;29;20057;-78
2022/06/20 08:27:57;;;;;;;18.73;12.85;;;;;;;;;;4856855;29;20518;-79
2022/06/20 08:30:44;;;;;;;25.90;15.73;;;;;;;;;;4857689;29;20121;-79
2022/06/20 08:33:20;;;;;;;27.25;16.35;;;;;;;;;;4857926;29;20065;-79
2022/06/20 08:35:51;;;;;;;12.43;9.07;;;;;;;;;;4857046;29;20140;-78
2022/06/20 08:38:29;;;;;;;20.90;13.80;;;;;;;;;;4856457;29;20049;-79
2022/06/20 08:40:56;;;;;;;32.92;20.20;;;;;;;;;;4854519;29;20080;-79
2022/06/20 08:43:42;;;;;;;28.55;17.48;;;;;;;;;;4857303;29;20074;-79
2022/06/20 08:46:19;;;;;;;21.92;13.18;;;;;;;;;;4855484;29;20053;-79
2022/06/20 08:48:47;;;;;;;25.58;15.65;;;;;;;;;;4851212;29;20045;-78
2022/06/20 08:51:23;;;;;;;20.38;10.73;;;;;;;;;;4854649;29;20128;-78
2022/06/20 08:54:03;;;;;;;17.98;10.52;;;;;;;;;;4840304;29;20085;-78
2022/06/20 08:56:46;;;;;;;22.58;14.88;;;;;;;;;;4852452;29;20529;-78
2022/06/20 08:59:13;;;;;;;30.83;18.13;;;;;;;;;;4856329;29;20282;-78
2022/06/20 09:01:48;;;;;;;23.17;17.48;;;;;;;;;;4839100;29;20101;-78
2022/06/20 09:04:27;;;;;;;26.10;17.88;;;;;;;;;;4839090;29;20106;-78
2022/06/20 09:06:55;;;;;;;21.63;14.77;;;;;;;;;;4852348;29;20050;-77
2022/06/20 09:09:28;;;;;;;19.48;15.20;;;;;;;;;;4855596;29;20049;-78
2022/06/20 09:12:10;;;;;;;20.00;14.70;;;;;;;;;;4856094;29;20049;-77
2022/06/20 09:14:52;;;;;;;29.08;19.23;;;;;;;;;;4855542;29;20057;-78
2022/06/20 09:17:31;;;;;;;25.05;17.48;;;;;;;;;;4855168;29;20566;-79
2022/06/20 09:20:17;;;;;;;30.52;19.42;;;;;;;;;;4855793;29;20046;-78
2022/06/20 09:22:44;;;;;;;29.10;19.80;;;;;;;;;;4855660;29;20041;-79
2022/06/20 09:25:15;;;;;;;24.05;17.10;;;;;;;;;;4855267;29;20120;-79
2022/06/20 09:27:42;;;;;;;26.77;16.52;;;;;;;;;;4854828;29;20485;-79
2022/06/20 09:30:14;;;;;;;25.60;18.48;;;;;;;;;;4855594;29;20128;-79
2022/06/20 09:33:07;;;;;;;27.98;19.23;;;;;;;;;;4855666;29;20046;-79
2022/06/20 09:35:40;;;;;;;18.92;14.55;;;;;;;;;;4847505;29;20582;-79
2022/06/20 09:38:23;;;;;;;21.58;14.75;;;;;;;;;;4854937;29;20045;-79
2022/06/20 09:41:00;;;;;;;24.67;16.55;;;;;;;;;;4855852;29;20074;-78
2022/06/20 09:43:45;;;;;;;19.27;14.25;;;;;;;;;;4847120;29;20049;-78
2022/06/20 09:46:28;;;;;;;19.42;14.00;;;;;;;;;;4845012;29;20157;-78
2022/06/20 09:49:00;;;;;;;20.52;13.30;;;;;;;;;;4824054;29;20136;-77
2022/06/20 09:51:34;;;;;;;18.42;13.43;;;;;;;;;;4852399;29;20481;-78
2022/06/20 09:54:10;;;;;;;19.98;13.60;;;;;;;;;;4855955;29;20064;-77
2022/06/20 09:56:41;;;;;;;14.68;11.52;;;;;;;;;;4840735;29;20448;-78
2022/06/20 09:59:12;;;;;;;18.63;11.32;;;;;;;;;;4855907;29;20049;-77
2022/06/20 10:01:50;;;;;;;18.30;10.80;;;;;;;;;;4859177;29;20048;-77
2022/06/20 10:04:18;;;;;;;21.42;12.05;;;;;;;;;;4836631;29;20455;-77
2022/06/20 10:06:49;;;;;;;12.98;10.35;;;;;;;;;;4837249;29;20531;-77
2022/06/20 10:09:22;;;;;;;12.98;9.75;;;;;;;;;;4858804;29;20163;-77
2022/06/20 10:11:50;;;;;;;15.63;10.13;;;;;;;;;;4863089;29;20060;-77
2022/06/20 10:14:26;;;;;;;15.55;10.00;;;;;;;;;;4836051;29;20053;-76
2022/06/20 10:17:09;;;;;;;13.55;8.93;;;;;;;;;;4860226;29;20502;-76
2022/06/20 10:19:36;;;;;;;13.73;9.23;;;;;;;;;;4857592;29;20046;-76
2022/06/20 10:22:14;;;;;;;14.75;8.63;;;;;;;;;;4861408;29;20064;-77
2022/06/20 10:25:00;;;;;;;14.70;9.05;;;;;;;;;;4856333;29;20473;-77
2022/06/20 10:28:11;;;;;;;14.00;9.57;;;;;;;;;;4859830;29;20526;-77
2022/06/20 10:30:39;;;;;;;14.55;9.10;;;;;;;;;;4845711;29;20735;-76
2022/06/20 10:33:09;;;;;;;14.75;8.88;;;;;;;;;;4859877;29;20502;-77
2022/06/20 10:35:40;;;;;;;18.20;9.77;;;;;;;;;;4858482;29;20108;-76
2022/06/20 10:38:11;;;;;;;17.13;9.47;;;;;;;;;;4860355;29;20129;-78
2022/06/20 10:40:44;;;;;;;11.95;8.65;;;;;;;;;;4862317;29;20046;-77
2022/06/20 10:43:30;;;;;;;13.63;8.15;;;;;;;;;;4842453;29;20105;-77
2022/06/20 10:46:00;;;;;;;14.13;8.20;;;;;;;;;;4842367;29;20059;-77
2022/06/20 10:48:30;;;;;;;12.48;7.75;;;;;;;;;;4861964;29;20111;-77
2022/06/20 10:51:13;;;;;;;12.50;6.50;;;;;;;;;;4847424;29;20493;-77
2022/06/20 10:54:16;;;;;;;13.82;6.85;;;;;;;;;;4860306;29;20426;-77
2022/06/20 10:57:03;;;;;;;13.40;7.00;;;;;;;;;;4781355;29;20084;-77
2022/06/20 10:59:33;;;;;;;17.38;6.95;;;;;;;;;;4836542;29;20073;-77
2022/06/20 11:02:12;;;;;;;12.80;6.10;;;;;;;;;;4859578;29;20148;-77
2022/06/20 11:04:58;;;;;;;10.52;6.15;;;;;;;;;;4840549;29;20120;-77
2022/06/20 11:07:28;;;;;;;14.30;6.20;;;;;;;;;;4853039;29;20059;-77
2022/06/20 11:10:25;;;;;;;17.25;6.32;;;;;;;;;;4848937;24;20054;-80
2022/06/20 11:12:57;;;;;;;13.60;6.07;;;;;;;;;;4798960;29;20242;-80
2022/06/20 11:15:36;;;;;;;12.68;6.18;;;;;;;;;;4804487;29;20054;-80
2022/06/20 11:18:25;;;;;;;14.20;5.63;;;;;;;;;;4805320;29;20061;-80
2022/06/20 11:21:06;;;;;;;10.13;5.97;;;;;;;;;;4806632;29;20050;-80
2022/06/20 11:23:41;;;;;;;12.73;6.35;;;;;;;;;;4819577;29;20066;-80
2022/06/20 11:26:12;;;;;;;13.40;5.93;;;;;;;;;;4811061;29;20122;-80
2022/06/20 11:28:43;;;;;;;12.82;5.53;;;;;;;;;;4813959;29;20069;-80
2022/06/20 11:31:13;;;;;;;12.10;5.17;;;;;;;;;;4817127;29;20218;-81
2022/06/20 11:34:01;;;;;;;7.97;5.57;;;;;;;;;;4822822;29;20291;-80
2022/06/20 11:36:49;;;;;;;13.45;4.65;;;;;;;;;;4806950;29;20081;-80
2022/06/20 11:39:22;;;;;;;13.15;5.30;;;;;;;;;;4801084;29;20394;-80
2022/06/20 11:41:52;;;;;;;17.30;5.10;;;;;;;;;;4781355;29;20642;-79
2022/06/20 11:44:38;;;;;;;13.40;6.03;;;;;;;;;;4803180;29;20046;-79
2022/06/20 11:47:12;;;;;;;12.30;5.13;;;;;;;;;;4797172;29;20046;-80
2022/06/20 11:49:56;;;;;;;9.48;4.80;;;;;;;;;;4792550;29;20065;-81
2022/06/20 11:52:43;;;;;;;11.55;4.95;;;;;;;;;;4810475;29;20050;-81
2022/06/20 11:55:19;;;;;;;7.55;4.38;;;;;;;;;;4800480;29;20504;-81
2022/06/20 11:58:01;;;;;;;7.32;4.65;;;;;;;;;;4824413;29;20535;-80
2022/06/20 12:00:48;;;;;;;12.32;5.00;;;;;;;;;;4805780;29;20374;-81
2022/06/20 12:03:34;;;;;;;7.55;4.53;;;;;;;;;;4829477;29;20065;-81
2022/06/20 12:06:16;;;;;;;9.27;4.65;;;;;;;;;;4814165;29;20046;-81
2022/06/20 12:09:20;;;;;;;14.95;4.88;;;;;;;;;;4806842;29;20800;-81
2022/06/20 12:11:47;;;;;;;9.77;4.97;;;;;;;;;;4795265;29;20058;-81
2022/06/20 12:14:37;;;;;;;8.18;4.95;;;;;;;;;;4806722;29;20057;-80
2022/06/20 12:17:11;;;;;;;10.50;5.03;;;;;;;;;;4832023;29;20050;-81
2022/06/20 12:25:22;;;;;;;10.73;5.05;;;;;;;;;;4814564;29;20483;-80
2022/06/20 12:27:52;;;;;;;15.30;4.97;;;;;;;;;;4811226;29;20062;-79
2022/06/20 12:30:21;;;;;;;12.65;5.20;;;;;;;;;;4811476;29;20050;-79
2022/06/20 12:32:51;;;;;;;12.32;4.57;;;;;;;;;;4819090;29;20481;-81
2022/06/20 12:35:23;;;;;;;8.27;5.70;;;;;;;;;;4812686;29;20402;-80
2022/06/20 12:38:17;;;;;;;15.50;5.65;;;;;;;;;;4829111;29;20054;-79
2022/06/20 12:40:49;;;;;;;12.02;5.18;;;;;;;;;;4806038;29;20050;-79
2022/06/20 12:43:36;;;;;;;11.13;5.10;;;;;;;;;;4838620;29;20391;-80
2022/06/20 12:46:13;;;;;;;7.75;4.82;;;;;;;;;;4809675;29;20057;-80
2022/06/20 12:49:00;;;;;;;10.95;5.30;;;;;;;;;;4819170;29;20507;-80
2022/06/20 12:51:27;;;;;;;10.63;5.18;;;;;;;;;;4824454;29;20054;-80
2022/06/20 12:54:13;;;;;;;10.77;5.28;;;;;;;;;;4827336;29;20136;-80
2022/06/20 12:56:44;;;;;;;9.23;5.50;;;;;;;;;;4799753;29;20046;-81
2022/06/20 12:59:32;;;;;;;11.23;5.57;;;;;;;;;;4814787;29;20050;-80
2022/06/20 13:02:09;;;;;;;12.60;5.55;;;;;;;;;;4810846;29;20053;-80
2022/06/20 13:04:37;;;;;;;14.80;5.22;;;;;;;;;;4827653;29;20066;-80
2022/06/20 13:07:10;;;;;;;11.02;5.10;;;;;;;;;;4808980;29;20509;-81
2022/06/20 13:09:59;;;;;;;6.90;4.50;;;;;;;;;;4801202;29;20530;-81
2022/06/20 13:12:39;;;;;;;8.85;5.00;;;;;;;;;;4827361;29;20046;-80
2022/06/20 13:15:32;;;;;;;14.07;4.90;;;;;;;;;;4813060;29;20057;-82
2022/06/20 13:18:15;;;;;;;10.23;4.28;;;;;;;;;;4821511;29;20473;-81
2022/06/20 13:20:53;;;;;;;9.57;4.50;;;;;;;;;;4823616;29;20058;-81
2022/06/20 13:23:40;;;;;;;12.65;4.40;;;;;;;;;;4812118;29;20058;-81
2022/06/20 13:26:14;;;;;;;10.40;3.95;;;;;;;;;;4830895;29;20075;-80
2022/06/20 13:29:04;;;;;;;11.98;4.10;;;;;;;;;;4827372;29;20401;-81
2022/06/20 13:31:47;;;;;;;7.05;3.70;;;;;;;;;;4814385;29;20538;-80
2022/06/20 13:34:20;;;;;;;9.60;3.63;;;;;;;;;;4812264;29;20054;-81
2022/06/20 13:36:55;;;;;;;8.93;3.95;;;;;;;;;;4785753;29;20046;-81
2022/06/20 13:40:02;;;;;;;8.18;3.60;;;;;;;;;;4811134;29;20058;-80
2022/06/20 13:42:32;;;;;;;8.98;3.65;;;;;;;;;;4786123;29;20443;-80
2022/06/20 13:45:08;;;;;;;9.90;3.35;;;;;;;;;;4799553;29;20069;-80
2022/06/20 13:47:41;;;;;;;11.57;3.97;;;;;;;;;;4813946;29;20141;-80
2022/06/20 13:50:11;;;;;;;8.52;3.60;;;;;;;;;;4812288;29;20082;-80
2022/06/20 13:52:47;;;;;;;11.27;4.07;;;;;;;;;;4804441;29;20057;-81
2022/06/20 13:55:18;;;;;;;9.00;3.60;;;;;;;;;;4825219;29;20049;-80
2022/06/20 13:58:06;;;;;;;12.43;3.42;;;;;;;;;;4826075;29;20359;-79
2022/06/20 14:00:35;;;;;;;8.00;3.92;;;;;;;;;;4807855;29;20078;-80
2022/06/20 14:03:27;;;;;;;8.35;3.55;;;;;;;;;;4785060;29;20138;-80
2022/06/20 14:06:14;;;;;;;12.70;3.60;;;;;;;;;;4816494;29;20456;-80
2022/06/20 14:08:49;;;;;;;7.78;3.83;;;;;;;;;;4785472;29;20051;-81
2022/06/20 14:11:31;;;;;;;8.82;3.50;;;;;;;;;;4801281;29;20129;-80
2022/06/20 14:13:59;;;;;;;10.93;3.53;;;;;;;;;;4805775;29;20076;-80
2022/06/20 14:16:32;;;;;;;7.50;3.40;;;;;;;;;;4822580;29;20133;-81
2022/06/20 14:19:02;;;;;;;7.88;3.38;;;;;;;;;;4821103;29;20162;-79
2022/06/20 14:21:34;;;;;;;8.97;3.30;;;;;;;;;;4796018;29;20449;-80
2022/06/20 14:24:04;;;;;;;12.82;3.25;;;;;;;;;;4822781;29;20045;-79
2022/06/20 14:26:34;;;;;;;6.07;3.03;;;;;;;;;;4818991;29;20060;-80
2022/06/20 14:29:04;;;;;;;6.03;3.10;;;;;;;;;;4827496;29;20109;-79
2022/06/20 14:31:34;;;;;;;5.80;3.08;;;;;;;;;;4827619;29;20074;-80
2022/06/20 14:34:04;;;;;;;7.35;2.97;;;;;;;;;;4827646;29;20045;-79
2022/06/20 14:36:32;;;;;;;6.40;3.20;;;;;;;;;;4811693;29;20062;-79
2022/06/20 14:39:19;;;;;;;7.75;2.70;;;;;;;;;;4808082;29;20054;-79
2022/06/20 14:41:56;;;;;;;8.00;3.25;;;;;;;;;;4839515;29;20035;-81
2022/06/20 14:44:26;;;;;;;7.57;3.00;;;;;;;;;;4814453;29;20045;-78
2022/06/20 14:46:59;;;;;;;5.80;3.05;;;;;;;;;;4819909;29;20050;-78
2022/06/20 14:49:38;;;;;;;5.25;2.78;;;;;;;;;;4817796;29;20056;-79
2022/06/20 14:52:14;;;;;;;5.07;2.70;;;;;;;;;;4803479;29;20072;-79
2022/06/20 14:54:49;;;;;;;5.78;2.55;;;;;;;;;;4817597;29;20053;-78
2022/06/20 14:57:23;;;;;;;11.27;2.72;;;;;;;;;;4793710;29;20515;-78
2022/06/20 14:59:51;;;;;;;5.07;2.33;;;;;;;;;;4811653;29;20610;-79
2022/06/20 15:02:18;;;;;;;4.45;2.65;;;;;;;;;;4799704;29;20042;-79
2022/06/20 15:04:58;;;;;;;4.45;2.90;;;;;;;;;;4818791;29;20052;-79
2022/06/20 15:07:35;;;;;;;5.45;3.00;;;;;;;;;;4817740;29;20078;-79
2022/06/20 15:10:10;;;;;;;4.72;2.65;;;;;;;;;;4814484;29;20059;-79
2022/06/20 15:12:42;;;;;;;6.25;3.15;;;;;;;;;;4776386;29;20520;-78
2022/06/20 15:15:30;;;;;;;4.72;2.60;;;;;;;;;;4796088;29;20045;-78
2022/06/20 15:17:57;;;;;;;6.43;2.72;;;;;;;;;;4810770;29;20135;-79
2022/06/20 15:20:25;;;;;;;7.55;2.70;;;;;;;;;;4797854;29;20049;-78
2022/06/20 15:22:54;;;;;;;4.13;2.50;;;;;;;;;;4819069;29;20143;-79
2022/06/20 15:25:21;;;;;;;5.25;3.28;;;;;;;;;;4793608;29;20054;-80
2022/06/20 15:27:55;;;;;;;5.18;2.90;;;;;;;;;;4802220;29;20054;-78
2022/06/20 15:30:29;;;;;;;8.82;3.25;;;;;;;;;;4793742;29;20073;-79
2022/06/20 15:32:57;;;;;;;6.55;3.00;;;;;;;;;;4804122;29;20057;-79
2022/06/20 15:38:00;;;;;;;9.18;3.30;;;;;;;;;;4814398;29;20456;-77
2022/06/20 15:40:29;;;;;;;5.88;2.80;;;;;;;;;;4788165;29;20909;-77
2022/06/20 15:43:04;;;;;;;8.35;3.55;;;;;;;;;;4811341;29;20165;-78
2022/06/20 15:45:35;;;;;;;8.02;3.20;;;;;;;;;;4812134;29;20057;-78
2022/06/20 15:48:09;;;;;;;6.75;3.58;;;;;;;;;;4805772;29;20056;-80
2022/06/20 15:50:39;;;;;;;6.53;3.20;;;;;;;;;;4814992;29;20553;-79
2022/06/20 15:53:12;;;;;;;7.47;3.60;;;;;;;;;;4813299;29;20142;-80
2022/06/20 15:55:53;;;;;;;5.20;3.33;;;;;;;;;;4777413;29;20066;-79
2022/06/20 15:58:28;;;;;;;7.80;3.25;;;;;;;;;;4809245;29;20154;-79
2022/06/20 16:01:07;;;;;;;8.57;3.88;;;;;;;;;;4816505;29;20500;-80
2022/06/20 16:03:53;;;;;;;7.85;3.83;;;;;;;;;;4816826;29;20049;-78
2022/06/20 16:06:27;;;;;;;6.63;3.33;;;;;;;;;;4801969;29;20049;-80